createdAt,value
2022-10-01T00:01:00.744Z,2.25
2022-10-01T00:03:29.501Z,2.28
2022-10-01T00:06:09.534Z,2.33
2022-10-01T00:08:37.491Z,2.15
2022-10-01T00:11:16.050Z,2.90
2022-10-01T00:13:43.681Z,2.80
2022-10-01T00:16:16.100Z,2.90
2022-10-01T00:18:45.511Z,2.35
2022-10-01T00:21:17.765Z,2.42
2022-10-01T00:23:44.324Z,2.40
2022-10-01T00:26:17.098Z,2.80
2022-10-01T00:28:45.648Z,2.30
2022-10-01T00:31:13.211Z,2.80
2022-10-01T00:33:39.952Z,3.30
2022-10-01T00:36:07.734Z,3.88
2022-10-01T00:38:34.816Z,3.53
2022-10-01T00:41:01.443Z,3.30
2022-10-01T00:43:31.875Z,2.80
2022-10-01T00:46:07.010Z,3.10
2022-10-01T00:48:39.937Z,3.20
2022-10-01T00:51:06.638Z,3.13
2022-10-01T00:53:33.234Z,2.67
2022-10-01T00:55:59.960Z,2.30
2022-10-01T00:58:27.388Z,2.63
2022-10-01T01:00:55.939Z,2.47
2022-10-01T01:03:22.864Z,2.80
2022-10-01T01:05:50.251Z,2.60
2022-10-01T01:08:17.914Z,2.22
2022-10-01T01:11:01.657Z,2.85
2022-10-01T01:13:47.627Z,2.88
2022-10-01T01:16:23.397Z,2.78
2022-10-01T01:19:04.714Z,2.65
2022-10-01T01:21:52.127Z,2.30
2022-10-01T01:24:36.835Z,2.90
2022-10-01T01:27:16.430Z,3.20
2022-10-01T01:30:06.119Z,2.60
2022-10-01T01:32:39.506Z,2.60
2022-10-01T01:35:10.183Z,2.50
2022-10-01T01:37:45.220Z,3.20
2022-10-01T01:40:15.000Z,3.05
2022-10-01T01:42:44.096Z,3.38
2022-10-01T01:45:17.565Z,3.88
2022-10-01T01:47:45.390Z,2.90
2022-10-01T01:50:14.251Z,2.53
2022-10-01T01:52:41.294Z,1.90
2022-10-01T01:55:09.952Z,2.33
2022-10-01T01:57:39.874Z,2.15
2022-10-01T02:00:07.055Z,2.20
2022-10-01T02:02:36.113Z,2.35
2022-10-01T02:05:08.784Z,1.98
2022-10-01T02:08:05.939Z,2.10
2022-10-01T02:10:57.783Z,2.97
2022-10-01T02:13:33.603Z,3.10
2022-10-01T02:16:18.918Z,3.05
2022-10-01T02:19:16.298Z,2.90
2022-10-01T02:21:56.121Z,2.50
2022-10-01T02:24:42.483Z,2.70
2022-10-01T02:27:20.317Z,2.17
2022-10-01T02:29:49.664Z,2.05
2022-10-01T02:32:18.224Z,2.30
2022-10-01T02:34:47.436Z,2.50
2022-10-01T02:37:14.975Z,2.50
2022-10-01T02:39:42.430Z,2.75
2022-10-01T02:42:12.363Z,2.78
2022-10-01T02:44:42.601Z,2.40
2022-10-01T02:47:19.980Z,2.47
2022-10-01T02:49:47.717Z,2.50
2022-10-01T02:52:21.961Z,2.78
2022-10-01T02:55:03.406Z,2.63
2022-10-01T02:57:29.999Z,3.13
2022-10-01T02:59:59.187Z,3.85
2022-10-01T03:02:31.535Z,4.85
2022-10-01T03:04:59.376Z,4.50
2022-10-01T03:07:27.656Z,5.10
2022-10-01T03:09:54.419Z,5.93
2022-10-01T03:12:21.871Z,7.00
2022-10-01T03:14:48.475Z,6.07
2022-10-01T03:17:16.152Z,6.45
2022-10-01T03:19:42.905Z,4.80
2022-10-01T03:22:12.990Z,4.00
2022-10-01T03:24:39.677Z,3.53
2022-10-01T03:27:06.694Z,3.67
2022-10-01T03:29:33.369Z,3.10
2022-10-01T03:32:00.081Z,3.22
2022-10-01T03:34:26.788Z,3.28
2022-10-01T03:36:53.427Z,3.03
2022-10-01T03:39:20.000Z,3.10
2022-10-01T03:41:46.546Z,3.80
2022-10-01T03:44:13.155Z,4.53
2022-10-01T03:46:39.815Z,3.83
2022-10-01T03:49:06.407Z,2.92
2022-10-01T03:51:33.581Z,4.00
2022-10-01T03:54:00.373Z,3.40
2022-10-01T03:56:26.973Z,3.40
2022-10-01T03:58:53.759Z,3.50
2022-10-01T04:01:20.721Z,3.63
2022-10-01T04:03:48.313Z,3.80
2022-10-01T04:06:15.225Z,3.80
2022-10-01T04:08:41.737Z,4.28
2022-10-01T04:11:08.567Z,4.50
2022-10-01T04:13:35.639Z,4.00
2022-10-01T04:16:03.337Z,3.47
2022-10-01T04:18:30.947Z,3.88
2022-10-01T04:20:58.124Z,3.58
2022-10-01T04:23:25.203Z,3.78
2022-10-01T04:25:51.871Z,3.72
2022-10-01T04:28:18.863Z,4.25
2022-10-01T04:30:46.522Z,3.90
2022-10-01T04:33:15.971Z,4.13
2022-10-01T04:35:43.679Z,4.57
2022-10-01T04:38:16.271Z,5.57
2022-10-01T04:40:42.840Z,4.27
2022-10-01T04:43:10.787Z,3.63
2022-10-01T04:45:38.420Z,4.13
2022-10-01T04:48:05.287Z,3.70
2022-10-01T04:50:32.381Z,4.45
2022-10-01T04:52:59.003Z,4.07
2022-10-01T04:55:25.823Z,5.20
2022-10-01T04:57:52.351Z,5.00
2022-10-01T05:00:21.856Z,5.35
2022-10-01T05:02:49.931Z,5.00
2022-10-01T05:05:18.655Z,5.28
2022-10-01T05:07:45.471Z,4.47
2022-10-01T05:10:14.893Z,4.30
2022-10-01T05:12:42.084Z,4.15
2022-10-01T05:15:09.548Z,4.43
2022-10-01T05:17:36.136Z,5.00
2022-10-01T05:20:06.212Z,4.40
2022-10-01T05:22:33.165Z,4.38
2022-10-01T05:25:00.383Z,4.63
2022-10-01T05:27:27.717Z,4.00
2022-10-01T05:29:54.277Z,5.90
2022-10-01T05:32:20.756Z,5.72
2022-10-01T05:34:52.676Z,5.65
2022-10-01T05:37:20.111Z,5.53
2022-10-01T05:39:46.766Z,11.75
2022-10-01T05:42:13.330Z,8.25
2022-10-01T05:44:45.960Z,6.80
2022-10-01T05:47:14.059Z,19.03
2022-10-01T05:49:42.933Z,45.85
2022-10-01T05:52:13.962Z,14.20
2022-10-01T05:54:41.156Z,11.07
2022-10-01T05:57:08.144Z,10.20
2022-10-01T05:59:35.474Z,8.63
2022-10-01T06:02:03.910Z,5.55
2022-10-01T06:04:38.972Z,5.78
2022-10-01T06:07:07.526Z,5.57
2022-10-01T06:09:34.055Z,6.40
2022-10-01T06:12:00.827Z,6.15
2022-10-01T06:14:27.630Z,6.20
2022-10-01T06:16:54.768Z,6.85
2022-10-01T06:19:21.458Z,6.65
2022-10-01T06:21:48.003Z,6.68
2022-10-01T06:24:14.549Z,6.97
2022-10-01T06:26:41.246Z,5.38
2022-10-01T06:29:07.954Z,5.63
2022-10-01T06:31:34.855Z,5.28
2022-10-01T06:34:01.711Z,5.32
2022-10-01T06:36:28.212Z,4.93
2022-10-01T06:38:54.724Z,5.72
2022-10-01T06:41:21.270Z,5.93
2022-10-01T06:43:49.222Z,5.38
2022-10-01T06:46:15.809Z,5.93
2022-10-01T06:48:42.391Z,6.35
2022-10-01T06:51:09.094Z,6.53
2022-10-01T06:53:35.785Z,6.68
2022-10-01T06:56:07.650Z,5.75
2022-10-01T06:58:34.979Z,7.38
2022-10-01T07:01:03.940Z,6.10
2022-10-01T07:03:31.523Z,5.40
2022-10-01T07:06:05.501Z,5.07
2022-10-01T07:08:33.368Z,5.22
2022-10-01T07:11:03.707Z,4.80
2022-10-01T07:13:30.763Z,4.82
2022-10-01T07:15:57.360Z,4.88
2022-10-01T07:18:24.214Z,4.18
2022-10-01T07:20:50.866Z,4.47
2022-10-01T07:23:17.518Z,4.50
2022-10-01T07:25:44.921Z,4.47
2022-10-01T07:28:18.094Z,4.45
2022-10-01T07:33:20.007Z,4.03
2022-10-01T07:35:48.006Z,4.30
2022-10-01T07:38:14.674Z,4.82
2022-10-01T07:40:41.820Z,3.70
2022-10-01T07:43:08.895Z,4.88
2022-10-01T07:45:35.521Z,4.40
2022-10-01T07:48:03.420Z,4.15
2022-10-01T07:50:32.976Z,4.13
2022-10-01T07:53:00.273Z,4.68
2022-10-01T07:55:30.683Z,4.13
2022-10-01T07:58:01.691Z,4.20
2022-10-01T08:00:30.185Z,4.32
2022-10-01T08:02:57.273Z,4.22
2022-10-01T08:05:27.170Z,4.90
2022-10-01T08:07:54.068Z,4.55
2022-10-01T08:10:23.214Z,4.75
2022-10-01T08:12:50.067Z,4.75
2022-10-01T08:15:18.501Z,4.97
2022-10-01T08:17:45.202Z,4.20
2022-10-01T08:20:13.922Z,4.47
2022-10-01T08:22:42.358Z,3.78
2022-10-01T08:25:09.296Z,4.85
2022-10-01T08:27:36.613Z,5.30
2022-10-01T08:30:03.689Z,4.85
2022-10-01T08:32:31.225Z,4.10
2022-10-01T08:34:59.948Z,4.30
2022-10-01T08:37:28.704Z,4.03
2022-10-01T08:39:56.534Z,4.60
2022-10-01T08:42:33.334Z,4.35
2022-10-01T08:45:05.530Z,4.55
2022-10-01T08:47:38.285Z,4.00
2022-10-01T08:50:22.768Z,4.20
2022-10-01T08:52:55.155Z,3.88
2022-10-01T08:55:26.234Z,4.30
2022-10-01T08:58:03.068Z,4.45
2022-10-01T09:00:32.686Z,3.95
2022-10-01T09:03:04.526Z,3.70
2022-10-01T09:05:36.512Z,3.97
2022-10-01T09:08:44.192Z,3.95
2022-10-01T09:11:23.834Z,3.40
2022-10-01T09:14:34.763Z,4.15
2022-10-01T09:17:13.143Z,3.33
2022-10-01T09:19:50.325Z,4.05
2022-10-01T09:22:27.809Z,3.63
2022-10-01T09:25:09.817Z,3.60
2022-10-01T09:27:38.419Z,3.65
2022-10-01T09:30:19.772Z,3.80
2022-10-01T09:32:56.759Z,4.05
2022-10-01T09:35:52.712Z,3.35
2022-10-01T09:38:24.274Z,2.95
2022-10-01T09:40:54.928Z,3.03
2022-10-01T09:43:23.412Z,5.15
2022-10-01T09:45:52.921Z,4.70
2022-10-01T09:48:38.351Z,3.40
2022-10-01T09:51:13.977Z,2.92
2022-10-01T09:53:53.042Z,3.38
2022-10-01T09:56:26.637Z,3.60
2022-10-01T09:58:56.845Z,2.90
2022-10-01T10:01:31.544Z,2.70
2022-10-01T10:03:58.421Z,3.15
2022-10-01T10:06:30.477Z,3.20
2022-10-01T10:08:59.646Z,3.33
2022-10-01T10:11:32.215Z,2.65
2022-10-01T10:14:03.457Z,3.25
2022-10-01T10:16:37.839Z,3.22
2022-10-01T10:19:10.327Z,3.22
2022-10-01T10:21:37.848Z,3.67
2022-10-01T10:24:07.393Z,3.40
2022-10-01T10:26:38.557Z,3.60
2022-10-01T10:29:08.590Z,3.42
2022-10-01T10:31:40.703Z,3.30
2022-10-01T10:34:18.522Z,3.20
2022-10-01T10:36:46.796Z,3.50
2022-10-01T10:39:46.659Z,2.78
2022-10-01T10:42:18.787Z,3.05
2022-10-01T10:44:49.386Z,2.70
2022-10-01T10:47:19.144Z,3.30
2022-10-01T10:49:58.469Z,3.03
2022-10-01T10:52:35.141Z,3.10
2022-10-01T10:55:23.132Z,3.00
2022-10-01T10:57:51.549Z,3.38
2022-10-01T11:00:26.587Z,2.85
2022-10-01T11:02:53.151Z,3.50
2022-10-01T11:05:23.147Z,4.15
2022-10-01T11:07:54.633Z,3.78
2022-10-01T11:10:21.727Z,4.78
2022-10-01T11:13:10.012Z,4.10
2022-10-01T11:15:57.382Z,4.28
2022-10-01T11:18:42.597Z,3.42
2022-10-01T11:21:24.353Z,3.28
2022-10-01T11:24:29.603Z,3.92
2022-10-01T11:27:12.463Z,3.08
2022-10-01T11:29:54.177Z,3.23
2022-10-01T11:32:48.148Z,3.80
2022-10-01T11:38:06.682Z,3.40
2022-10-01T11:40:39.997Z,3.45
2022-10-01T11:45:56.763Z,3.17
2022-10-01T11:48:38.232Z,3.80
2022-10-01T11:51:16.293Z,3.40
2022-10-01T11:53:59.993Z,4.10
2022-10-01T11:59:29.465Z,3.30
2022-10-01T12:02:15.265Z,3.50
2022-10-01T12:04:52.933Z,3.40
2022-10-01T12:07:30.269Z,3.25
2022-10-01T12:10:28.700Z,2.88
2022-10-01T12:13:01.463Z,2.47
2022-10-01T12:15:49.316Z,2.70
2022-10-01T12:18:37.401Z,2.80
2022-10-01T12:21:12.856Z,2.88
2022-10-01T12:24:00.386Z,2.97
2022-10-01T12:26:48.519Z,2.60
2022-10-01T12:29:23.344Z,2.45
2022-10-01T12:32:02.261Z,2.50
2022-10-01T12:34:38.599Z,3.17
2022-10-01T12:37:26.257Z,2.83
2022-10-01T12:40:31.458Z,2.60
2022-10-01T12:43:22.178Z,2.10
2022-10-01T12:46:05.545Z,2.13
2022-10-01T12:48:52.681Z,2.15
2022-10-01T12:51:42.858Z,1.80
2022-10-01T12:54:15.026Z,1.80
2022-10-01T12:56:49.156Z,1.95
2022-10-01T12:59:41.953Z,1.83
2022-10-01T13:02:43.811Z,1.85
2022-10-01T13:05:33.060Z,1.77
2022-10-01T13:08:12.746Z,1.65
2022-10-01T13:10:42.001Z,1.80
2022-10-01T13:13:23.694Z,1.80
2022-10-01T13:15:59.705Z,1.67
2022-10-01T13:18:38.908Z,1.40
2022-10-01T13:21:20.630Z,1.52
2022-10-01T13:23:58.644Z,1.60
2022-10-01T13:26:53.763Z,1.50
2022-10-01T13:29:49.544Z,1.50
2022-10-01T13:32:51.246Z,1.58
2022-10-01T13:35:24.259Z,1.38
2022-10-01T13:37:51.303Z,1.25
2022-10-01T13:40:32.907Z,1.30
2022-10-01T13:43:03.196Z,1.38
2022-10-01T13:45:31.387Z,1.70
2022-10-01T13:48:34.751Z,1.30
2022-10-01T13:51:10.697Z,1.20
2022-10-01T13:53:52.050Z,1.42
2022-10-01T13:56:37.222Z,1.25
2022-10-01T13:59:20.719Z,1.42
2022-10-01T14:01:47.748Z,1.70
2022-10-01T14:04:23.930Z,2.80
2022-10-01T14:06:54.782Z,2.75
2022-10-01T14:09:40.570Z,2.70
2022-10-01T14:12:40.936Z,1.80
2022-10-01T14:15:58.172Z,1.80
2022-10-01T14:18:28.887Z,1.52
2022-10-01T14:21:01.206Z,1.67
2022-10-01T14:23:41.862Z,1.40
2022-10-01T14:26:52.290Z,1.40
2022-10-01T14:30:03.080Z,1.52
2022-10-01T14:32:51.009Z,1.80
2022-10-01T14:35:35.150Z,1.48
2022-10-01T14:38:04.971Z,2.00
2022-10-01T14:40:38.766Z,1.83
2022-10-01T14:43:25.309Z,1.40
2022-10-01T14:45:51.756Z,1.45
2022-10-01T14:48:18.376Z,1.25
2022-10-01T14:50:49.534Z,1.45
2022-10-01T14:53:18.837Z,1.23
2022-10-01T14:55:48.360Z,1.20
2022-10-01T14:58:25.765Z,1.20
2022-10-01T15:00:54.257Z,1.10
2022-10-01T15:03:21.248Z,1.25
2022-10-01T15:05:49.266Z,1.15
2022-10-01T15:08:38.120Z,1.48
2022-10-01T15:11:08.272Z,1.33
2022-10-01T15:13:40.709Z,1.30
2022-10-01T15:16:14.034Z,1.40
2022-10-01T15:21:41.060Z,1.27
2022-10-01T15:24:16.555Z,1.70
2022-10-01T15:26:47.421Z,1.70
2022-10-01T15:29:16.526Z,2.00
2022-10-01T15:31:45.124Z,1.67
2022-10-01T15:34:13.784Z,1.90
2022-10-01T15:36:42.301Z,1.90
2022-10-01T15:39:30.184Z,1.40
2022-10-01T15:41:57.464Z,1.65
2022-10-01T15:44:45.587Z,1.90
2022-10-01T15:47:24.016Z,1.60
2022-10-01T15:50:10.086Z,2.33
2022-10-01T15:52:53.066Z,3.13
2022-10-01T15:55:25.474Z,3.88
2022-10-01T15:58:03.104Z,2.00
2022-10-01T16:00:34.712Z,2.65
2022-10-01T16:03:03.173Z,2.40
2022-10-01T16:05:37.681Z,2.38
2022-10-01T16:08:05.403Z,1.83
2022-10-01T16:10:38.203Z,1.90
2022-10-01T16:13:32.748Z,1.27
2022-10-01T16:16:15.154Z,1.38
2022-10-01T16:18:42.740Z,1.83
2022-10-01T16:21:11.148Z,4.55
2022-10-01T16:23:40.371Z,1.83
2022-10-01T16:26:27.238Z,1.98
2022-10-01T16:29:18.150Z,1.45
2022-10-01T16:31:45.885Z,1.95
2022-10-01T16:34:15.072Z,1.95
2022-10-01T16:36:41.902Z,2.08
2022-10-01T16:39:08.818Z,2.17
2022-10-01T16:41:35.874Z,2.15
2022-10-01T16:44:05.340Z,1.98
2022-10-01T16:46:33.469Z,2.10
2022-10-01T16:49:00.287Z,1.48
2022-10-01T16:51:27.144Z,1.13
2022-10-01T16:53:55.008Z,1.80
2022-10-01T16:56:26.276Z,1.80
2022-10-01T16:58:53.717Z,1.10
2022-10-01T17:01:20.342Z,1.85
2022-10-01T17:03:46.977Z,1.80
2022-10-01T17:06:13.479Z,2.95
2022-10-01T17:08:40.026Z,1.80
2022-10-01T17:11:10.663Z,2.42
2022-10-01T17:13:39.016Z,2.35
2022-10-01T17:16:06.487Z,4.45
2022-10-01T17:18:33.121Z,2.78
2022-10-01T17:21:03.083Z,2.63
2022-10-01T17:23:29.558Z,2.35
2022-10-01T17:25:56.047Z,2.60
2022-10-01T17:28:24.021Z,2.85
2022-10-01T17:30:50.664Z,1.80
2022-10-01T17:33:19.307Z,2.33
2022-10-01T17:35:51.525Z,1.98
2022-10-01T17:38:19.250Z,1.60
2022-10-01T17:40:45.841Z,1.50
2022-10-01T17:43:14.427Z,1.65
2022-10-01T17:45:41.380Z,1.73
2022-10-01T17:48:08.226Z,1.48
2022-10-01T17:50:35.442Z,1.60
2022-10-01T17:53:01.969Z,1.42
2022-10-01T17:55:28.587Z,1.90
2022-10-01T17:57:55.126Z,1.55
2022-10-01T18:00:21.650Z,1.60
2022-10-01T18:02:48.188Z,1.67
2022-10-01T18:05:15.156Z,1.80
2022-10-01T18:07:42.257Z,2.42
2022-10-01T18:10:11.624Z,4.25
2022-10-01T18:12:38.299Z,4.13
2022-10-01T18:15:05.324Z,3.00
2022-10-01T18:17:33.253Z,2.05
2022-10-01T18:20:00.098Z,2.08
2022-10-01T18:22:27.737Z,1.90
2022-10-01T18:24:54.278Z,1.80
2022-10-01T18:27:20.882Z,2.00
2022-10-01T18:29:47.392Z,1.92
2022-10-01T18:32:26.457Z,1.60
2022-10-01T18:35:01.346Z,1.42
2022-10-01T18:37:39.071Z,1.40
2022-10-01T18:40:15.124Z,1.25
2022-10-01T18:43:06.759Z,1.00
2022-10-01T18:45:51.874Z,1.00
2022-10-01T18:48:37.182Z,1.05
2022-10-01T18:51:34.037Z,0.90
2022-10-01T18:54:15.779Z,0.98
2022-10-01T18:57:07.701Z,0.80
2022-10-01T19:00:07.599Z,1.00
2022-10-01T19:03:04.326Z,0.80
2022-10-01T19:05:55.930Z,0.93
2022-10-01T19:08:35.624Z,0.90
2022-10-01T19:11:21.979Z,1.10
2022-10-01T19:14:16.233Z,0.70
2022-10-01T19:17:14.408Z,0.85
2022-10-01T19:20:14.395Z,0.88
2022-10-01T19:22:53.122Z,1.00
2022-10-01T19:25:30.923Z,0.98
2022-10-01T19:28:29.252Z,0.73
2022-10-01T19:31:14.450Z,0.60
2022-10-01T19:33:49.005Z,0.60
2022-10-01T19:36:26.088Z,0.73
2022-10-01T19:38:55.355Z,0.85
2022-10-01T19:41:36.785Z,0.90
2022-10-01T19:44:09.763Z,0.60
2022-10-01T19:46:41.457Z,0.60
2022-10-01T19:49:08.693Z,0.80
2022-10-01T19:51:46.146Z,0.90
2022-10-01T19:54:18.448Z,0.82
2022-10-01T19:56:48.660Z,0.82
2022-10-01T19:59:19.947Z,1.20
2022-10-01T20:01:54.666Z,1.10
2022-10-01T20:04:40.134Z,0.80
2022-10-01T20:07:35.922Z,1.13
2022-10-01T20:10:21.920Z,0.60
2022-10-01T20:13:16.611Z,0.70
2022-10-01T20:15:55.843Z,0.60
2022-10-01T20:18:50.449Z,0.77
2022-10-01T20:21:54.199Z,0.90
2022-10-01T20:24:46.224Z,0.68
2022-10-01T20:27:27.941Z,0.80
2022-10-01T20:30:27.863Z,0.77
2022-10-01T20:33:24.469Z,0.80
2022-10-01T20:36:02.425Z,0.70
2022-10-01T20:38:47.891Z,0.55
2022-10-01T20:41:18.097Z,0.80
2022-10-01T20:43:52.671Z,0.65
2022-10-01T20:46:36.627Z,0.57
2022-10-01T20:49:11.326Z,0.60
2022-10-01T20:51:59.075Z,0.60
2022-10-01T20:54:33.213Z,0.55
2022-10-01T20:57:21.183Z,0.80
2022-10-01T20:59:52.494Z,0.70
2022-10-01T21:02:44.003Z,0.60
2022-10-01T21:05:22.121Z,0.60
2022-10-01T21:07:59.363Z,1.00
2022-10-01T21:10:35.560Z,0.63
2022-10-01T21:13:33.081Z,0.70
2022-10-01T21:16:11.774Z,0.50
2022-10-01T21:18:45.394Z,1.10
2022-10-01T21:24:25.126Z,0.75
2022-10-01T21:27:13.266Z,0.70
2022-10-01T21:29:58.630Z,0.73
2022-10-01T21:32:40.232Z,0.70
2022-10-01T21:35:44.087Z,0.77
2022-10-01T21:38:32.316Z,0.90
2022-10-01T21:41:34.452Z,0.88
2022-10-01T21:44:11.011Z,0.70
2022-10-01T21:46:40.231Z,0.75
2022-10-01T21:49:13.434Z,1.45
2022-10-01T21:51:43.047Z,1.00
2022-10-01T21:54:49.719Z,1.58
2022-10-01T21:57:24.694Z,1.10
2022-10-01T22:00:18.386Z,1.60
2022-10-01T22:02:50.774Z,1.20
2022-10-01T22:05:29.429Z,1.20
2022-10-01T22:08:08.065Z,1.00
2022-10-01T22:10:39.256Z,0.95
2022-10-01T22:13:22.491Z,0.60
2022-10-01T22:15:54.308Z,0.60
2022-10-01T22:18:45.336Z,0.50
2022-10-01T22:21:27.408Z,0.60
2022-10-01T22:24:04.745Z,0.60
2022-10-01T22:26:34.130Z,0.57
2022-10-01T22:31:35.392Z,0.60
2022-10-01T22:34:08.291Z,0.60
2022-10-01T22:36:41.400Z,0.50
2022-10-01T22:39:15.768Z,0.47
2022-10-01T22:41:47.219Z,0.90
2022-10-01T22:44:16.378Z,0.60
2022-10-01T22:46:58.117Z,0.60
2022-10-01T22:49:37.141Z,0.50
2022-10-01T22:52:51.819Z,0.50
2022-10-01T22:58:22.134Z,0.50
2022-10-01T23:01:01.662Z,0.32
2022-10-01T23:03:50.024Z,0.70
2022-10-01T23:06:28.813Z,0.52
2022-10-01T23:09:09.908Z,0.63
2022-10-01T23:12:23.780Z,0.50
2022-10-01T23:15:02.564Z,0.37
2022-10-01T23:18:04.697Z,0.50
2022-10-01T23:20:41.207Z,0.50
2022-10-01T23:23:31.518Z,0.60
2022-10-01T23:26:04.138Z,0.38
2022-10-01T23:28:36.050Z,0.40
2022-10-01T23:31:40.830Z,0.55
2022-10-01T23:34:48.607Z,0.32
2022-10-01T23:37:26.748Z,0.55
2022-10-01T23:40:09.430Z,0.40
2022-10-01T23:43:13.759Z,0.47
2022-10-01T23:45:47.988Z,0.25
2022-10-01T23:48:39.635Z,0.32
2022-10-01T23:51:12.384Z,0.30
2022-10-01T23:53:44.950Z,0.30
2022-10-01T23:56:39.840Z,0.30
2022-10-01T23:59:09.388Z,0.40
